createdAt,value
2022-09-23T00:00:32.152Z,78.53
2022-09-23T00:01:32.522Z,78.94
2022-09-23T00:02:32.813Z,78.53
2022-09-23T00:03:33.051Z,78.42
2022-09-23T00:04:33.371Z,78.42
2022-09-23T00:05:33.682Z,78.59
2022-09-23T00:06:34.038Z,78.74
2022-09-23T00:07:36.021Z,78.53
2022-09-23T00:08:34.567Z,78.53
2022-09-23T00:09:34.889Z,78.83
2022-09-23T00:10:35.202Z,79.18
2022-09-23T00:11:35.562Z,79.80
2022-09-23T00:12:35.766Z,79.80
2022-09-23T00:13:36.083Z,80.14
2022-09-23T00:14:36.402Z,80.45
2022-09-23T00:15:36.691Z,80.86
2022-09-23T00:16:37.094Z,80.62
2022-09-23T00:17:37.298Z,80.72
2022-09-23T00:18:38.392Z,80.55
2022-09-23T00:19:37.905Z,80.14
2022-09-23T00:20:38.264Z,79.93
2022-09-23T00:21:38.452Z,80.04
2022-09-23T00:22:38.810Z,80.14
2022-09-23T00:23:39.009Z,79.90
2022-09-23T00:24:39.357Z,79.69
2022-09-23T00:25:39.675Z,79.69
2022-09-23T00:26:39.990Z,79.80
2022-09-23T00:27:40.318Z,80.00
2022-09-23T00:28:40.643Z,79.83
2022-09-23T00:29:40.880Z,80.04
2022-09-23T00:30:41.213Z,79.83
2022-09-23T00:31:43.251Z,79.83
2022-09-23T00:32:41.650Z,79.93
2022-09-23T00:33:41.954Z,79.80
2022-09-23T00:34:42.293Z,79.69
2022-09-23T00:35:42.500Z,79.49
2022-09-23T00:36:42.830Z,79.49
2022-09-23T00:37:43.159Z,79.52
2022-09-23T00:38:43.492Z,79.52
2022-09-23T00:39:43.877Z,79.42
2022-09-23T00:40:44.133Z,79.52
2022-09-23T00:41:44.343Z,79.32
2022-09-23T00:42:48.502Z,79.52
2022-09-23T00:43:44.995Z,79.49
2022-09-23T00:44:45.360Z,79.38
2022-09-23T00:45:45.631Z,79.63
2022-09-23T00:46:45.825Z,80.04
2022-09-23T00:47:46.155Z,79.93
2022-09-23T00:48:46.469Z,79.83
2022-09-23T00:49:46.826Z,79.97
2022-09-23T00:50:47.035Z,80.18
2022-09-23T00:51:47.364Z,80.55
2022-09-23T02:56:31.985Z,81.21
2022-09-23T02:57:32.237Z,81.21
2022-09-23T02:58:32.522Z,81.52
2022-09-23T02:59:32.809Z,81.07
2022-09-23T03:00:33.084Z,81.21
2022-09-23T03:01:33.416Z,81.11
2022-09-23T03:02:33.729Z,81.28
2022-09-23T03:03:33.998Z,81.11
2022-09-23T03:04:34.387Z,81.11
2022-09-23T03:05:34.682Z,81.42
2022-09-23T03:06:34.937Z,81.48
2022-09-23T03:07:35.170Z,81.01
2022-09-23T03:08:35.411Z,81.21
2022-09-23T03:09:35.659Z,81.83
2022-09-23T03:10:35.903Z,82.04
2022-09-23T03:11:36.125Z,82.34
2022-09-23T03:12:36.418Z,82.04
2022-09-23T03:13:36.647Z,82.24
2022-09-23T03:14:36.879Z,82.69
2022-09-23T03:15:37.204Z,82.90
2022-09-23T03:16:37.554Z,83.00
2022-09-23T03:17:37.836Z,83.41
2022-09-23T03:18:38.069Z,83.41
2022-09-23T03:19:38.306Z,83.76
2022-09-23T03:20:38.539Z,83.86
2022-09-23T03:21:38.768Z,84.17
2022-09-23T03:22:39.158Z,84.38
2022-09-23T03:23:39.377Z,84.48
2022-09-23T03:24:39.732Z,84.27
2022-09-23T03:25:39.947Z,84.48
2022-09-23T03:26:40.287Z,84.58
2022-09-23T03:27:40.534Z,84.93
2022-09-23T03:28:40.747Z,84.93
2022-09-23T03:29:41.081Z,84.72
2022-09-23T03:30:41.414Z,84.62
2022-09-23T03:31:42.862Z,84.83
2022-09-23T03:32:42.067Z,84.72
2022-09-23T03:33:42.305Z,84.93
2022-09-23T03:34:42.523Z,85.03
2022-09-23T03:35:42.853Z,85.24
2022-09-23T03:36:43.075Z,85.03
2022-09-23T03:37:43.433Z,84.93
2022-09-23T03:38:43.658Z,85.03
2022-09-23T03:39:43.991Z,84.93
2022-09-23T03:40:44.392Z,85.03
2022-09-23T03:41:44.622Z,85.03
2022-09-23T03:42:44.952Z,85.17
2022-09-23T03:43:45.291Z,85.24
2022-09-23T03:44:45.519Z,85.38
2022-09-23T03:45:45.957Z,85.49
2022-09-23T03:46:46.181Z,85.59
2022-09-23T03:47:46.405Z,86.00
2022-09-23T03:48:46.740Z,85.89
2022-09-23T03:49:47.072Z,85.79
2022-09-23T03:50:47.335Z,85.89
2022-09-23T03:51:47.549Z,86.21
2022-09-23T03:52:47.892Z,86.24
2022-09-23T03:53:48.232Z,86.24
2022-09-23T03:54:48.456Z,86.24
2022-09-23T03:55:48.697Z,86.24
2022-09-23T03:56:48.965Z,86.15
2022-09-23T03:57:49.196Z,86.04
2022-09-23T03:58:49.538Z,86.24
2022-09-23T03:59:49.745Z,86.35
2022-09-23T04:00:50.193Z,86.55
2022-09-23T04:01:50.473Z,86.45
2022-09-23T04:02:50.752Z,86.35
2022-09-23T04:03:50.991Z,86.15
2022-09-23T04:04:51.205Z,86.15
2022-09-23T04:05:51.546Z,86.00
2022-09-23T04:06:51.754Z,86.31
2022-09-23T04:07:52.088Z,85.69
2022-09-23T04:08:52.311Z,85.79
2022-09-23T04:09:52.678Z,85.49
2022-09-23T04:10:54.837Z,85.38
2022-09-23T04:11:53.123Z,85.28
2022-09-23T04:12:53.365Z,85.17
2022-09-23T04:13:53.583Z,85.17
2022-09-23T04:14:53.946Z,85.07
2022-09-23T04:15:54.305Z,85.07
2022-09-23T04:16:54.447Z,84.72
2022-09-23T04:17:54.691Z,84.93
2022-09-23T04:18:54.911Z,84.93
2022-09-23T04:19:55.141Z,84.56
2022-09-23T04:20:55.470Z,84.83
2022-09-23T04:21:55.775Z,84.45
2022-09-23T04:22:56.116Z,84.87
2022-09-23T04:23:56.337Z,84.56
2022-09-23T04:24:56.669Z,84.87
2022-09-23T04:25:56.893Z,84.97
2022-09-23T04:26:57.232Z,85.17
2022-09-23T04:27:57.484Z,85.28
2022-09-23T04:28:57.699Z,85.07
2022-09-23T04:29:58.031Z,85.07
2022-09-23T04:30:58.375Z,85.07
2022-09-23T04:31:58.861Z,85.17
2022-09-23T04:32:59.043Z,85.07
2022-09-23T04:33:59.261Z,85.17
2022-09-23T04:34:59.519Z,85.28
2022-09-23T04:35:59.747Z,85.28
2022-09-23T04:37:00.030Z,85.07
2022-09-23T04:38:00.249Z,85.17
2022-09-23T04:39:00.667Z,85.01
2022-09-23T04:40:00.891Z,84.91
2022-09-23T04:41:01.159Z,85.11
2022-09-23T04:42:01.377Z,85.31
2022-09-23T04:43:01.701Z,85.52
2022-09-23T04:44:02.041Z,85.52
2022-09-23T04:45:02.263Z,85.73
2022-09-23T04:46:02.637Z,85.52
2022-09-23T04:47:03.017Z,85.83
2022-09-23T04:48:03.163Z,85.67
2022-09-23T04:49:03.487Z,85.73
2022-09-23T04:50:03.826Z,85.42
2022-09-23T04:51:04.170Z,85.31
2022-09-23T04:52:04.429Z,85.42
2022-09-23T04:53:04.657Z,85.42
2022-09-23T04:54:04.869Z,85.63
2022-09-23T04:55:09.145Z,85.87
2022-09-23T04:56:06.519Z,85.97
2022-09-23T04:57:05.826Z,86.29
2022-09-23T04:58:06.088Z,86.39
2022-09-23T04:59:06.355Z,86.43
2022-09-23T05:00:06.529Z,86.63
2022-09-23T05:01:06.796Z,86.63
2022-09-23T05:02:07.151Z,86.84
2022-09-23T05:03:07.415Z,87.05
2022-09-23T05:04:07.633Z,87.05
2022-09-23T05:05:07.978Z,86.84
2022-09-23T05:06:08.225Z,86.60
2022-09-23T05:07:08.441Z,86.18
2022-09-23T05:08:08.706Z,85.57
2022-09-23T05:09:09.158Z,85.31
2022-09-23T05:10:09.274Z,84.91
2022-09-23T05:11:09.541Z,84.80
2022-09-23T05:12:09.774Z,84.39
2022-09-23T05:13:10.038Z,84.29
2022-09-23T05:14:10.265Z,84.66
2022-09-23T05:15:10.499Z,84.25
2022-09-23T05:16:10.794Z,84.05
2022-09-23T05:17:11.090Z,83.73
2022-09-23T05:18:11.360Z,83.32
2022-09-23T05:19:11.573Z,83.22
2022-09-23T05:20:11.817Z,83.32
2022-09-23T05:21:12.040Z,83.84
2022-09-23T05:22:12.296Z,83.32
2022-09-23T05:23:12.509Z,83.59
2022-09-23T05:24:12.768Z,83.49
2022-09-23T05:25:12.971Z,83.18
2022-09-23T05:26:13.325Z,83.18
2022-09-23T05:27:13.543Z,83.39
2022-09-23T05:28:13.771Z,83.07
2022-09-23T05:29:14.039Z,83.59
2022-09-23T05:30:14.267Z,83.28
2022-09-23T05:31:19.406Z,82.77
2022-09-23T05:32:15.807Z,83.39
2022-09-23T05:33:15.101Z,83.49
2022-09-23T05:34:15.370Z,83.70
2022-09-23T05:35:15.613Z,83.90
2022-09-23T05:36:15.836Z,83.80
2022-09-23T05:37:16.160Z,83.90
2022-09-23T05:38:16.404Z,83.90
2022-09-23T05:39:16.657Z,83.90
2022-09-23T05:40:16.977Z,84.21
2022-09-23T05:41:17.167Z,83.90
2022-09-23T05:42:17.504Z,84.21
2022-09-23T05:43:17.820Z,84.31
2022-09-23T05:44:18.214Z,84.31
2022-09-23T05:45:18.477Z,84.31
2022-09-23T05:46:18.754Z,84.62
2022-09-23T05:47:19.000Z,84.72
2022-09-23T05:48:19.222Z,84.93
2022-09-23T05:49:19.460Z,84.62
2022-09-23T05:50:19.709Z,84.58
2022-09-23T05:51:19.960Z,85.10
2022-09-23T05:52:20.190Z,84.79
2022-09-23T05:53:20.423Z,84.89
2022-09-23T05:54:20.757Z,84.58
2022-09-23T05:55:21.135Z,84.38
2022-09-23T05:56:21.379Z,84.69
2022-09-23T05:57:21.637Z,84.69
2022-09-23T05:58:21.861Z,84.58
2022-09-23T05:59:22.099Z,85.06
2022-09-23T06:00:22.346Z,84.54
2022-09-23T06:01:22.660Z,84.75
2022-09-23T06:02:22.931Z,84.30
2022-09-23T06:03:23.083Z,84.09
2022-09-23T06:04:23.364Z,83.99
2022-09-23T06:05:23.632Z,83.78
2022-09-23T06:06:23.855Z,83.78
2022-09-23T06:07:24.208Z,83.64
2022-09-23T06:08:24.433Z,83.44
2022-09-23T06:09:24.771Z,83.44
2022-09-23T06:10:25.099Z,83.13
2022-09-23T06:11:25.344Z,82.89
2022-09-23T06:12:25.562Z,83.19
2022-09-23T06:13:25.801Z,82.75
2022-09-23T06:14:26.024Z,82.03
2022-09-23T06:15:26.385Z,81.92
2022-09-23T06:16:26.682Z,81.57
2022-09-23T06:17:26.852Z,81.37
2022-09-23T06:18:27.084Z,81.16
2022-09-23T06:19:27.345Z,80.96
2022-09-23T06:20:27.656Z,80.86
2022-09-23T06:21:27.819Z,80.92
2022-09-23T06:22:28.043Z,81.02
2022-09-23T06:23:28.378Z,81.02
2022-09-23T06:24:31.397Z,80.82
2022-09-23T06:25:28.883Z,80.92
2022-09-23T06:26:29.106Z,80.58
2022-09-23T06:27:29.459Z,80.37
2022-09-23T06:28:29.673Z,80.58
2022-09-23T06:29:30.031Z,80.58
2022-09-23T06:30:30.305Z,80.58
2022-09-23T06:31:30.621Z,80.85
2022-09-23T06:32:30.841Z,80.54
2022-09-23T06:33:36.552Z,80.64
2022-09-23T06:34:43.236Z,80.74
2022-09-23T06:35:32.700Z,81.01
2022-09-23T06:36:41.965Z,80.09
2022-09-23T06:37:33.353Z,79.96
2022-09-23T06:38:32.642Z,80.26
2022-09-23T06:39:32.882Z,79.82
2022-09-23T06:40:33.144Z,79.30
2022-09-23T06:41:33.419Z,79.00
2022-09-23T06:42:33.671Z,78.86
2022-09-23T06:43:33.926Z,78.24
2022-09-23T06:44:34.212Z,78.34
2022-09-23T06:45:34.431Z,78.20
2022-09-23T06:46:34.689Z,78.00
2022-09-23T06:47:34.963Z,77.49
2022-09-23T06:48:35.247Z,77.39
2022-09-23T06:49:35.529Z,77.80
2022-09-23T06:50:35.752Z,77.39
2022-09-23T06:51:35.970Z,78.00
2022-09-23T06:52:36.244Z,78.11
2022-09-23T06:53:36.470Z,77.35
2022-09-23T06:54:36.709Z,77.66
2022-09-23T06:55:36.932Z,77.25
2022-09-23T06:56:39.496Z,77.56
2022-09-23T06:57:37.520Z,77.52
2022-09-23T06:58:37.778Z,77.31
2022-09-23T06:59:37.995Z,76.81
2022-09-23T07:00:38.250Z,77.01
2022-09-23T07:01:38.652Z,76.87
2022-09-23T07:02:38.848Z,76.90
2022-09-23T07:03:39.029Z,77.11
2022-09-23T07:04:39.271Z,77.93
2022-09-23T07:05:39.501Z,78.64
2022-09-23T07:06:39.713Z,79.39
2022-09-23T07:07:40.056Z,79.77
2022-09-23T07:08:40.390Z,79.66
2022-09-23T07:09:40.755Z,79.77
2022-09-23T07:10:40.983Z,79.57
2022-09-23T07:11:41.322Z,78.71
2022-09-23T07:12:41.649Z,78.61
2022-09-23T07:13:41.864Z,78.47
2022-09-23T07:14:42.228Z,77.21
2022-09-23T07:15:42.518Z,76.25
2022-09-23T07:16:42.781Z,75.20
2022-09-23T07:17:42.994Z,74.55
2022-09-23T07:18:43.305Z,74.76
2022-09-23T07:19:43.624Z,74.90
2022-09-23T07:20:43.952Z,75.30
2022-09-23T07:21:44.321Z,75.71
2022-09-23T07:22:44.540Z,75.81
2022-09-23T07:23:44.894Z,75.40
2022-09-23T07:24:45.122Z,75.30
2022-09-23T07:25:45.339Z,76.25
2022-09-23T07:26:45.905Z,76.66
2022-09-23T07:27:45.902Z,76.66
2022-09-23T07:28:46.226Z,76.56
2022-09-23T07:29:48.878Z,76.46
2022-09-23T07:30:58.331Z,76.76
2022-09-23T07:31:48.232Z,77.27
2022-09-23T07:32:49.149Z,77.64
2022-09-23T07:33:47.844Z,77.68
2022-09-23T07:34:48.194Z,77.75
2022-09-23T07:35:48.406Z,77.14
2022-09-23T07:36:48.730Z,76.83
2022-09-23T07:37:49.068Z,76.83
2022-09-23T07:38:49.392Z,76.22
2022-09-23T07:39:49.741Z,77.44
2022-09-23T07:40:49.970Z,76.93
2022-09-23T07:41:50.208Z,76.39
2022-09-23T07:42:50.531Z,75.67
2022-09-23T07:43:50.849Z,75.84
2022-09-23T07:44:51.208Z,75.43
2022-09-23T07:45:51.427Z,74.69
2022-09-23T07:46:51.792Z,74.45
2022-09-23T07:47:52.034Z,72.99
2022-09-23T07:48:52.402Z,73.09
2022-09-23T07:49:52.620Z,72.75
2022-09-23T07:50:52.934Z,73.36
2022-09-23T07:51:53.310Z,72.21
2022-09-23T07:52:53.526Z,72.08
2022-09-23T07:53:53.852Z,71.64
2022-09-23T07:54:54.183Z,70.79
2022-09-23T07:55:54.502Z,70.08
2022-09-23T07:56:54.842Z,69.78
2022-09-23T07:57:55.044Z,70.05
2022-09-23T07:58:55.374Z,69.84
2022-09-23T07:59:55.687Z,69.54
2022-09-23T08:00:56.006Z,68.93
2022-09-23T08:01:56.399Z,69.31
2022-09-23T08:02:56.668Z,68.80
2022-09-23T08:03:56.901Z,69.20
2022-09-23T08:04:57.221Z,68.77
2022-09-23T08:05:57.540Z,68.26
2022-09-23T08:06:57.784Z,67.93
2022-09-23T08:07:58.021Z,67.62
2022-09-23T08:08:58.324Z,68.23
2022-09-23T08:09:58.627Z,68.13
2022-09-23T08:10:58.917Z,67.49
2022-09-23T08:11:59.276Z,66.58
2022-09-23T08:12:59.488Z,65.87
2022-09-23T08:13:59.923Z,65.84
2022-09-23T08:15:00.020Z,65.94
2022-09-23T08:16:00.387Z,66.14
2022-09-23T08:17:00.604Z,66.14
2022-09-23T08:18:00.951Z,66.24
2022-09-23T08:19:01.450Z,66.21
2022-09-23T08:20:01.554Z,66.04
2022-09-23T08:21:01.856Z,66.55
2022-09-23T08:22:02.149Z,66.44
2022-09-23T08:23:02.473Z,66.95
2022-09-23T08:24:02.844Z,66.75
2022-09-23T08:25:03.101Z,66.28
2022-09-23T08:26:03.441Z,65.44
2022-09-23T08:27:03.784Z,64.61
2022-09-23T08:28:03.960Z,63.56
2022-09-23T08:29:04.249Z,63.33
2022-09-23T08:30:04.586Z,62.40
2022-09-23T08:31:04.926Z,62.13
2022-09-23T08:32:05.210Z,60.02
2022-09-23T08:33:05.401Z,59.36
2022-09-23T08:34:05.858Z,57.77
2022-09-23T08:35:06.102Z,56.18
2022-09-23T08:36:06.304Z,55.22
2022-09-23T08:37:06.643Z,54.60
2022-09-23T08:38:06.948Z,53.77
2022-09-23T08:39:07.265Z,53.47
2022-09-23T08:40:07.671Z,52.74
2022-09-23T08:41:07.888Z,51.74
2022-09-23T08:42:08.236Z,51.32
2022-09-23T08:43:08.424Z,51.09
2022-09-23T08:44:08.805Z,51.54
2022-09-23T08:45:09.066Z,49.00
2022-09-23T08:46:09.424Z,48.46
2022-09-23T08:47:09.693Z,47.03
2022-09-23T08:48:13.018Z,45.50
2022-09-23T08:49:10.247Z,45.60
2022-09-23T08:50:10.453Z,45.30
2022-09-23T08:51:10.758Z,45.90
2022-09-23T08:52:11.085Z,46.42
2022-09-23T08:53:11.270Z,46.39
2022-09-23T08:54:11.563Z,45.72
2022-09-23T08:55:11.867Z,46.64
2022-09-23T08:56:12.164Z,46.58
2022-09-23T08:57:12.493Z,47.42
2022-09-23T08:58:24.872Z,49.37
2022-09-23T08:59:14.043Z,49.40
2022-09-23T09:00:13.308Z,49.67
2022-09-23T09:01:13.642Z,49.55
2022-09-23T09:02:13.908Z,49.02
2022-09-23T09:03:14.154Z,48.10
2022-09-23T09:04:14.361Z,47.45
2022-09-23T09:05:14.655Z,46.51
2022-09-23T09:06:15.018Z,45.42
2022-09-23T09:08:16.497Z,45.74
2022-09-23T09:09:15.728Z,46.64
2022-09-23T09:10:16.058Z,46.84
2022-09-23T09:11:16.365Z,47.28
2022-09-23T09:12:16.644Z,48.00
2022-09-23T09:13:16.951Z,48.00
2022-09-23T09:14:17.261Z,48.20
2022-09-23T09:15:17.600Z,48.08
2022-09-23T09:16:27.272Z,47.90
2022-09-23T09:17:19.295Z,47.50
2022-09-23T09:18:18.475Z,48.67
2022-09-23T09:19:18.758Z,49.40
2022-09-23T09:20:19.063Z,50.32
2022-09-23T09:21:19.396Z,50.72
2022-09-23T09:22:19.709Z,50.24
2022-09-23T09:23:20.013Z,51.25
2022-09-23T09:24:20.338Z,51.17
2022-09-23T09:25:20.662Z,51.89
2022-09-23T09:26:20.980Z,51.57
2022-09-23T09:27:21.289Z,51.99
2022-09-23T09:28:21.561Z,52.69
2022-09-23T09:29:34.941Z,52.39
2022-09-23T09:30:23.177Z,51.89
2022-09-23T09:31:22.532Z,52.27
2022-09-23T09:32:22.735Z,52.47
2022-09-23T09:33:23.019Z,51.34
2022-09-23T09:34:23.368Z,50.64
2022-09-23T09:35:23.541Z,50.74
2022-09-23T09:36:23.828Z,50.64
2022-09-23T09:37:24.148Z,50.64
2022-09-23T09:38:24.451Z,51.34
2022-09-23T09:39:26.311Z,51.07
2022-09-23T09:40:25.080Z,51.59
2022-09-23T09:41:25.307Z,53.09
2022-09-23T09:42:25.657Z,52.09
2022-09-23T09:43:25.866Z,51.69
2022-09-23T09:44:26.182Z,51.14
2022-09-23T09:45:26.528Z,51.14
2022-09-23T09:46:26.767Z,51.19
2022-09-23T09:47:26.988Z,51.51
2022-09-23T09:48:27.285Z,52.19
2022-09-23T09:49:27.599Z,52.19
2022-09-23T09:50:27.953Z,51.72
2022-09-23T09:51:28.142Z,52.34
2022-09-23T09:52:28.459Z,53.05
2022-09-23T09:53:28.710Z,53.17
2022-09-23T09:54:29.025Z,54.07
2022-09-23T09:55:29.378Z,54.20
2022-09-23T09:56:29.569Z,55.13
2022-09-23T09:57:33.526Z,55.26
2022-09-23T09:58:31.193Z,55.26
2022-09-23T09:59:30.429Z,55.53
2022-09-23T10:00:30.721Z,54.33
2022-09-23T10:01:31.077Z,54.00
2022-09-23T10:02:31.339Z,53.77
2022-09-23T10:03:31.692Z,53.07
2022-09-23T10:04:31.898Z,53.17
2022-09-23T10:05:32.218Z,53.27
2022-09-23T10:06:32.561Z,52.75
2022-09-23T10:07:32.790Z,52.34
2022-09-23T10:08:33.133Z,52.42
2022-09-23T10:09:33.465Z,52.12
2022-09-23T10:10:34.022Z,52.09
2022-09-23T10:11:33.991Z,51.77
2022-09-23T10:12:34.272Z,51.57
2022-09-23T10:13:34.600Z,51.25
2022-09-23T10:14:34.937Z,50.72
2022-09-23T10:15:35.250Z,50.32
2022-09-23T10:16:35.592Z,49.59
2022-09-23T10:17:35.824Z,49.17
2022-09-23T10:18:36.090Z,48.85
2022-09-23T10:19:36.299Z,49.12
2022-09-23T10:20:36.636Z,48.22
2022-09-23T10:21:36.944Z,48.45
2022-09-23T10:22:37.259Z,48.55
2022-09-23T10:23:37.567Z,48.85
2022-09-23T10:24:37.881Z,49.35
2022-09-23T10:25:38.215Z,49.37
2022-09-23T10:26:38.519Z,49.44
2022-09-23T10:27:38.832Z,48.94
2022-09-23T10:28:39.122Z,49.42
2022-09-23T10:29:39.430Z,48.32
2022-09-23T10:30:39.792Z,48.00
2022-09-23T10:31:39.993Z,47.48
2022-09-23T10:32:40.301Z,47.08
2022-09-23T10:33:40.619Z,46.56
2022-09-23T10:34:40.918Z,46.54
2022-09-23T10:35:41.253Z,46.09
2022-09-23T10:36:44.530Z,45.48
2022-09-23T10:37:41.835Z,43.94
2022-09-23T10:38:42.135Z,43.16
2022-09-23T10:39:42.452Z,42.13
2022-09-23T10:40:42.945Z,40.11
2022-09-23T10:41:42.990Z,39.69
2022-09-23T10:42:43.308Z,39.59
2022-09-23T10:43:43.635Z,39.58
2022-09-23T10:44:43.940Z,38.57
2022-09-23T10:45:44.317Z,38.04
2022-09-23T10:46:44.575Z,37.32
2022-09-23T10:47:44.848Z,37.09
2022-09-23T10:48:45.202Z,36.48
2022-09-23T10:49:45.426Z,35.68
2022-09-23T10:50:45.774Z,35.68
2022-09-23T10:51:45.972Z,35.76
2022-09-23T10:52:46.287Z,34.63
2022-09-23T10:53:46.596Z,34.82
2022-09-23T10:54:46.940Z,34.11
2022-09-23T10:55:47.154Z,33.92
2022-09-23T10:56:47.468Z,33.79
2022-09-23T10:57:47.808Z,32.97
2022-09-23T10:58:48.142Z,32.95
2022-09-23T10:59:48.461Z,32.87
2022-09-23T11:00:48.770Z,32.71
2022-09-23T11:01:49.160Z,32.71
2022-09-23T11:02:49.421Z,33.58
2022-09-23T11:03:49.767Z,32.90
2022-09-23T11:04:50.096Z,32.89
2022-09-23T11:05:50.320Z,33.08
2022-09-23T11:06:50.643Z,33.18
2022-09-23T11:07:50.939Z,32.69
2022-09-23T11:08:51.247Z,32.90
2022-09-23T11:09:51.551Z,33.79
2022-09-23T11:10:51.890Z,32.90
2022-09-23T11:11:52.093Z,32.74
2022-09-23T11:12:52.385Z,32.74
2022-09-23T11:13:54.703Z,32.95
2022-09-23T11:14:52.933Z,34.17
2022-09-23T11:15:53.284Z,33.87
2022-09-23T11:16:53.682Z,33.77
2022-09-23T11:17:53.920Z,34.05
2022-09-23T11:18:54.226Z,34.51
2022-09-23T11:19:54.532Z,34.06
2022-09-23T11:20:54.833Z,32.40
2022-09-23T11:21:55.184Z,33.08
2022-09-23T11:22:55.386Z,32.46
2022-09-23T11:23:55.682Z,31.58
2022-09-23T11:24:55.986Z,32.25
2022-09-23T11:25:56.283Z,31.65
2022-09-23T11:26:56.633Z,30.35
2022-09-23T11:27:56.972Z,30.35
2022-09-23T11:28:57.271Z,30.05
2022-09-23T11:29:57.584Z,29.55
2022-09-23T11:30:57.979Z,29.73
2022-09-23T11:31:59.683Z,29.99
2022-09-23T11:32:58.599Z,29.11
2022-09-23T11:33:58.791Z,28.93
2022-09-23T11:34:59.104Z,28.81
2022-09-23T11:35:59.401Z,29.00
2022-09-23T11:36:59.730Z,28.58
2022-09-23T11:38:00.066Z,28.26
2022-09-23T11:39:00.372Z,27.37
2022-09-23T11:40:00.712Z,27.26
2022-09-23T11:41:00.984Z,27.75
2022-09-23T11:42:01.241Z,27.43
2022-09-23T11:43:01.539Z,27.32
2022-09-23T11:44:01.873Z,26.32
2022-09-23T11:45:02.163Z,25.92
2022-09-23T11:46:02.414Z,26.00
2022-09-23T11:47:02.613Z,25.48
2022-09-23T11:48:02.947Z,24.80
2022-09-23T11:49:03.259Z,24.01
2022-09-23T11:50:03.587Z,24.18
2022-09-23T11:51:03.910Z,23.49
2022-09-23T11:52:04.241Z,22.99
2022-09-23T11:53:04.558Z,23.00
2022-09-23T11:54:04.866Z,23.50
2022-09-23T11:55:13.750Z,24.03
2022-09-23T11:56:06.488Z,25.12
2022-09-23T11:57:05.717Z,25.03
2022-09-23T11:58:11.318Z,25.42
2022-09-23T11:59:07.634Z,25.30
2022-09-23T12:00:06.535Z,24.61
2022-09-23T12:01:06.826Z,24.21
2022-09-23T12:02:18.247Z,24.68
2022-09-23T12:03:08.483Z,23.91
2022-09-23T12:04:16.744Z,24.69
2022-09-23T12:05:09.114Z,24.60
2022-09-23T12:06:08.335Z,24.97
2022-09-23T12:07:08.532Z,24.40
2022-09-23T12:08:08.847Z,24.50
2022-09-23T12:09:09.161Z,24.58
2022-09-23T12:10:09.470Z,24.38
2022-09-23T12:11:09.803Z,24.37
2022-09-23T12:12:09.999Z,23.96
2022-09-23T12:13:10.340Z,23.56
2022-09-23T12:14:10.574Z,22.67
2022-09-23T12:15:10.873Z,23.05
2022-09-23T12:16:11.211Z,23.34
2022-09-23T12:17:11.409Z,23.63
2022-09-23T12:18:11.764Z,23.45
2022-09-23T12:19:11.946Z,23.10
2022-09-23T12:20:12.350Z,23.29
2022-09-23T12:21:27.463Z,23.70
2022-09-23T12:22:13.837Z,23.41
2022-09-23T12:23:13.150Z,23.87
2022-09-23T12:24:17.124Z,22.88
2022-09-23T12:25:14.651Z,23.08
2022-09-23T12:26:13.886Z,23.39
2022-09-23T12:27:14.175Z,23.10
2022-09-23T12:28:14.513Z,23.77
2022-09-23T12:29:14.825Z,23.77
2022-09-23T12:30:15.172Z,23.76
2022-09-23T12:31:15.412Z,23.15
2022-09-23T12:32:15.643Z,22.47
2022-09-23T12:33:15.946Z,23.05
2022-09-23T12:34:16.270Z,22.67
2022-09-23T12:35:16.610Z,22.64
2022-09-23T12:36:16.832Z,21.85
2022-09-23T12:37:17.141Z,21.65
2022-09-23T12:38:17.460Z,21.65
2022-09-23T12:39:17.791Z,20.97
2022-09-23T12:40:18.172Z,20.86
2022-09-23T12:41:18.361Z,21.05
2022-09-23T12:42:18.677Z,21.92
2022-09-23T12:43:19.004Z,21.61
2022-09-23T12:44:19.317Z,21.02
2022-09-23T12:45:19.673Z,20.43
2022-09-23T12:46:20.014Z,20.32
2022-09-23T12:47:20.285Z,19.96
2022-09-23T12:48:20.629Z,21.14
2022-09-23T12:49:20.812Z,20.38
2022-09-23T12:50:23.791Z,20.86
2022-09-23T12:51:21.389Z,20.57
2022-09-23T12:52:21.697Z,21.08
2022-09-23T12:53:22.047Z,21.30
2022-09-23T12:54:22.354Z,21.39
2022-09-23T12:55:22.669Z,21.67
2022-09-23T12:56:23.014Z,21.77
2022-09-23T12:57:23.311Z,21.77
2022-09-23T12:58:23.620Z,21.58
2022-09-23T12:59:23.969Z,22.06
2022-09-23T13:00:24.173Z,21.77
2022-09-23T13:01:24.636Z,21.95
2022-09-23T13:02:24.858Z,21.47
2022-09-23T13:03:24.963Z,21.65
2022-09-23T13:04:25.336Z,21.54
2022-09-23T13:05:25.519Z,21.15
2022-09-23T13:06:25.817Z,21.37
2022-09-23T13:07:26.126Z,21.66
2022-09-23T13:08:26.420Z,20.89
2022-09-23T13:09:26.754Z,21.39
2022-09-23T13:10:27.088Z,21.78
2022-09-23T13:11:27.277Z,21.59
2022-09-23T13:12:27.595Z,22.19
2022-09-23T13:13:27.904Z,22.47
2022-09-23T13:14:28.207Z,23.04
2022-09-23T13:15:28.577Z,22.16
2022-09-23T13:16:28.776Z,22.25
2022-09-23T13:17:28.987Z,21.47
2022-09-23T13:18:29.306Z,22.05
2022-09-23T13:19:29.599Z,21.86
2022-09-23T13:20:29.938Z,22.15
2022-09-23T13:21:30.249Z,21.67
2022-09-23T13:22:30.550Z,21.98
2022-09-23T13:23:51.891Z,21.98
2022-09-23T13:24:31.139Z,22.27
2022-09-23T13:25:31.356Z,22.55
2022-09-23T13:26:31.651Z,22.16
2022-09-23T13:27:31.983Z,22.15
2022-09-23T13:28:32.296Z,22.06
2022-09-23T13:29:32.591Z,22.19
2022-09-23T13:30:32.940Z,23.49
2022-09-23T13:31:33.285Z,22.60
2022-09-23T13:32:33.648Z,22.77
2022-09-23T13:33:33.846Z,23.25
2022-09-23T13:34:34.144Z,22.66
2022-09-23T13:35:34.478Z,22.45
2022-09-23T13:36:34.786Z,21.67
2022-09-23T13:37:35.101Z,21.55
2022-09-23T13:38:35.413Z,21.15
2022-09-23T13:39:35.768Z,20.68
2022-09-23T13:40:36.024Z,21.36
2022-09-23T13:41:36.229Z,21.56
2022-09-23T13:42:36.547Z,21.38
2022-09-23T13:43:40.907Z,22.30
2022-09-23T13:44:37.125Z,23.00
2022-09-23T13:45:37.532Z,23.49
2022-09-23T13:46:37.747Z,23.41
2022-09-23T13:47:38.045Z,23.52
2022-09-23T13:48:38.380Z,23.52
2022-09-23T13:49:38.689Z,24.02
2022-09-23T13:50:39.053Z,24.30
2022-09-23T13:51:39.264Z,23.91
2022-09-23T13:52:39.564Z,23.41
2022-09-23T13:53:39.935Z,22.91
2022-09-23T13:54:40.176Z,23.11
2022-09-23T13:55:40.490Z,23.90
2022-09-23T13:56:40.769Z,24.79
2022-09-23T13:57:41.089Z,25.42
2022-09-23T13:58:41.412Z,26.31
2022-09-23T13:59:41.738Z,26.21
2022-09-23T14:00:42.132Z,26.21
2022-09-23T14:01:42.404Z,25.84
2022-09-23T14:02:42.737Z,26.81
2022-09-23T14:03:42.960Z,27.51
2022-09-23T14:04:43.259Z,28.33
2022-09-23T14:05:43.578Z,27.94
2022-09-23T14:06:43.920Z,28.96
2022-09-23T14:07:44.100Z,30.16
2022-09-23T14:08:44.399Z,29.47
2022-09-23T14:09:44.707Z,30.24
2022-09-23T14:10:45.017Z,29.04
2022-09-23T14:11:45.361Z,28.55
2022-09-23T14:12:45.660Z,29.36
2022-09-23T14:13:45.968Z,29.27
2022-09-23T14:14:46.202Z,29.44
2022-09-23T14:15:46.486Z,28.77
2022-09-23T14:16:46.803Z,28.67
2022-09-23T14:17:47.029Z,29.57
2022-09-23T14:18:47.325Z,30.45
2022-09-23T14:19:47.630Z,30.84
2022-09-23T14:20:47.939Z,30.19
2022-09-23T14:21:48.267Z,31.39
2022-09-23T14:22:48.563Z,32.63
2022-09-23T14:23:48.844Z,33.85
2022-09-23T14:24:49.201Z,34.99
2022-09-23T14:25:49.356Z,35.92
2022-09-23T14:26:49.680Z,37.24
2022-09-23T14:27:49.869Z,37.59
2022-09-23T14:28:50.280Z,38.71
2022-09-23T14:29:50.444Z,39.65
2022-09-23T14:30:50.749Z,41.10
2022-09-23T14:31:51.178Z,41.93
2022-09-23T14:32:51.285Z,43.66
2022-09-23T14:33:51.569Z,44.20
2022-09-23T14:34:51.888Z,44.81
2022-09-23T14:35:52.209Z,45.31
2022-09-23T14:36:52.535Z,45.01
2022-09-23T14:37:52.836Z,45.71
2022-09-23T14:38:53.154Z,46.38
2022-09-23T14:39:57.597Z,47.57
2022-09-23T14:40:53.812Z,47.30
2022-09-23T14:41:54.031Z,47.70
2022-09-23T14:42:54.308Z,48.10
2022-09-23T14:43:54.614Z,47.99
2022-09-23T14:44:59.743Z,46.90
2022-09-23T14:45:55.234Z,46.70
2022-09-23T14:46:55.442Z,45.79
2022-09-23T14:47:55.736Z,45.98
2022-09-23T14:48:56.037Z,46.19
2022-09-23T14:49:56.353Z,46.41
2022-09-23T14:50:56.652Z,45.79
2022-09-23T14:51:56.956Z,45.47
2022-09-23T14:52:57.280Z,44.75
2022-09-23T14:53:57.596Z,44.85
2022-09-23T14:54:57.901Z,45.54
2022-09-23T14:55:58.187Z,45.34
2022-09-23T14:56:58.515Z,43.93
2022-09-23T14:57:58.803Z,43.34
2022-09-23T14:58:59.112Z,43.34
2022-09-23T14:59:59.422Z,43.12
2022-09-23T15:00:59.766Z,42.11